createdAt,value
2018-11-28T00:02:23.493Z,3.50
2018-11-28T00:04:51.081Z,3.50
2018-11-28T00:07:18.674Z,3.50
2018-11-28T00:09:46.257Z,3.50
2018-11-28T00:12:13.810Z,3.50
2018-11-28T00:14:41.369Z,3.60
2018-11-28T00:17:09.871Z,3.70
2018-11-28T00:19:37.426Z,3.70
2018-11-28T00:22:05.014Z,3.70
2018-11-28T00:24:32.519Z,3.70
2018-11-28T00:27:00.125Z,3.80
2018-11-28T00:29:27.651Z,3.80
2018-11-28T00:31:55.229Z,3.90
2018-11-28T00:34:22.904Z,4.00
2018-11-28T00:36:50.458Z,4.10
2018-11-28T00:39:18.015Z,4.00
2018-11-28T00:41:45.674Z,4.00
2018-11-28T00:44:13.228Z,4.00
2018-11-28T00:46:41.544Z,4.00
2018-11-28T00:49:09.126Z,3.90
2018-11-28T00:51:36.642Z,4.00
2018-11-28T00:54:04.209Z,4.10
2018-11-28T00:56:32.091Z,4.10
2018-11-28T00:58:59.602Z,4.10
2018-11-28T01:08:10.945Z,4.10
2018-11-28T01:10:38.453Z,4.00
2018-11-28T01:13:06.250Z,3.90
2018-11-28T01:15:33.787Z,3.90
2018-11-28T01:18:01.321Z,3.80
2018-11-28T01:20:28.858Z,3.70
2018-11-28T01:22:56.386Z,3.60
2018-11-28T01:25:23.949Z,3.60
2018-11-28T01:27:51.576Z,3.50
2018-11-28T01:30:21.732Z,3.40
2018-11-28T01:32:49.400Z,3.40
2018-11-28T01:35:17.566Z,3.40
2018-11-28T01:37:45.469Z,3.50
2018-11-28T01:40:14.477Z,3.60
2018-11-28T01:42:42.034Z,3.60
2018-11-28T01:45:11.943Z,3.70
2018-11-28T01:47:39.501Z,3.70
2018-11-28T01:50:07.944Z,3.80
2018-11-28T01:52:35.476Z,3.80
2018-11-28T02:11:40.641Z,3.80
2018-11-28T02:14:08.180Z,3.90
2018-11-28T02:16:35.731Z,3.90
2018-11-28T02:19:03.392Z,3.80
2018-11-28T02:21:30.919Z,3.90
2018-11-28T02:23:58.445Z,3.80
2018-11-28T02:26:26.003Z,3.70
2018-11-28T02:28:53.611Z,3.80
2018-11-28T02:31:21.119Z,3.70
2018-11-28T02:33:48.665Z,3.70
2018-11-28T02:36:16.209Z,3.70
2018-11-28T02:38:43.727Z,3.70
2018-11-28T02:41:11.296Z,3.80
2018-11-28T02:43:38.892Z,3.70
2018-11-28T02:46:12.192Z,3.60
2018-11-28T02:48:39.845Z,3.50
2018-11-28T02:51:07.510Z,3.60
2018-11-28T02:53:35.070Z,3.60
2018-11-28T02:56:02.596Z,3.60
2018-11-28T02:58:30.175Z,3.50
2018-11-28T03:00:57.703Z,3.40
2018-11-28T03:03:25.261Z,3.40
2018-11-28T03:05:52.749Z,3.20
2018-11-28T03:08:20.272Z,3.20
2018-11-28T03:10:47.819Z,3.10
2018-11-28T03:13:15.345Z,2.90
2018-11-28T03:15:43.882Z,2.80
2018-11-28T03:18:11.521Z,2.70
2018-11-28T03:20:39.020Z,2.70
2018-11-28T03:23:06.657Z,2.60
2018-11-28T03:25:34.195Z,2.50
2018-11-28T03:28:01.818Z,2.40
2018-11-28T03:30:29.489Z,2.30
2018-11-28T03:32:57.042Z,2.40
2018-11-28T03:35:24.597Z,2.30
2018-11-28T03:37:52.160Z,2.20
2018-11-28T03:40:19.719Z,2.20
2018-11-28T03:42:47.293Z,2.20
2018-11-28T03:45:15.169Z,2.20
2018-11-28T03:47:43.075Z,2.10
2018-11-28T03:50:11.194Z,2.20
2018-11-28T03:52:38.860Z,2.20
2018-11-28T03:55:08.098Z,2.20
2018-11-28T03:57:35.616Z,2.20
2018-11-28T04:00:03.718Z,2.10
2018-11-28T04:02:31.303Z,2.20
2018-11-28T04:04:58.864Z,2.10
2018-11-28T04:07:26.413Z,2.10
2018-11-28T04:09:53.958Z,2.10
2018-11-28T04:12:21.951Z,2.00
2018-11-28T04:14:49.487Z,2.00
2018-11-28T04:17:17.083Z,2.00
2018-11-28T04:19:44.608Z,1.90
2018-11-28T04:22:12.126Z,2.00
2018-11-28T04:24:39.705Z,2.00
2018-11-28T04:27:07.306Z,1.90
2018-11-28T04:29:34.841Z,1.80
2018-11-28T04:32:02.500Z,1.70
2018-11-28T04:34:30.002Z,1.70
2018-11-28T04:36:57.543Z,1.70
2018-11-28T04:39:25.098Z,1.60
2018-11-28T04:41:52.641Z,1.40
2018-11-28T04:44:20.180Z,1.40
2018-11-28T04:46:47.731Z,1.30
2018-11-28T04:49:15.291Z,1.30
2018-11-28T04:51:42.916Z,1.30
2018-11-28T04:54:10.498Z,1.30
2018-11-28T04:56:38.142Z,1.20
2018-11-28T04:59:05.667Z,1.20
2018-11-28T05:01:33.347Z,1.10
2018-11-28T05:04:00.931Z,1.00
2018-11-28T05:06:34.236Z,1.00
2018-11-28T05:09:01.835Z,1.10
2018-11-28T05:11:29.411Z,1.20
2018-11-28T05:13:56.965Z,1.20
2018-11-28T05:16:24.591Z,1.20
2018-11-28T05:18:52.158Z,1.20
2018-11-28T05:21:19.954Z,1.30
2018-11-28T05:23:47.513Z,1.30
2018-11-28T05:26:17.701Z,1.30
2018-11-28T05:28:45.221Z,1.30
2018-11-28T05:31:12.808Z,1.30
2018-11-28T05:33:40.454Z,1.40
2018-11-28T05:36:08.001Z,1.30
2018-11-28T05:38:35.583Z,1.30
2018-11-28T05:41:03.107Z,1.20
2018-11-28T05:43:30.682Z,1.20
2018-11-28T05:45:58.305Z,1.20
2018-11-28T05:48:25.872Z,1.20
2018-11-28T05:50:53.404Z,1.20
2018-11-28T05:53:20.993Z,1.20
2018-11-28T05:55:48.539Z,1.10
2018-11-28T05:58:16.096Z,1.10
2018-11-28T06:00:43.611Z,1.00
2018-11-28T06:03:12.575Z,1.00
2018-11-28T06:05:40.665Z,1.10
2018-11-28T06:08:08.230Z,1.00
2018-11-28T06:10:35.971Z,1.00
2018-11-28T06:13:03.758Z,1.00
2018-11-28T06:15:31.400Z,0.90
2018-11-28T06:17:58.998Z,1.00
2018-11-28T06:20:26.499Z,0.90
2018-11-28T06:22:54.062Z,0.90
2018-11-28T06:25:21.831Z,0.90
2018-11-28T06:27:49.713Z,0.90
2018-11-28T06:30:17.766Z,0.80
2018-11-28T06:32:50.995Z,0.70
2018-11-28T06:35:13.027Z,0.70
2018-11-28T06:37:40.669Z,0.70
2018-11-28T06:40:16.641Z,0.70
2018-11-28T06:42:45.188Z,0.60
2018-11-28T06:45:13.371Z,0.60
2018-11-28T06:47:40.919Z,0.60
2018-11-28T06:50:10.230Z,0.70
2018-11-28T06:52:37.741Z,0.60
2018-11-28T06:55:06.299Z,0.60
2018-11-28T06:57:34.031Z,0.60
2018-11-28T07:00:01.787Z,0.70
2018-11-28T07:02:29.311Z,0.60
2018-11-28T07:04:56.907Z,0.60
2018-11-28T07:07:24.404Z,0.50
2018-11-28T07:09:52.074Z,0.60
2018-11-28T07:12:20.545Z,0.50
2018-11-28T07:14:48.112Z,0.60
2018-11-28T07:17:15.746Z,0.60
2018-11-28T07:19:43.342Z,0.60
2018-11-28T07:22:10.952Z,0.70
2018-11-28T07:24:38.959Z,0.70
2018-11-28T07:27:06.634Z,0.60
2018-11-28T07:29:34.143Z,0.60
2018-11-28T07:32:01.655Z,0.50
2018-11-28T07:34:29.198Z,0.40
2018-11-28T07:36:57.298Z,0.40
2018-11-28T07:39:24.809Z,0.30
2018-11-28T07:41:52.338Z,0.40
2018-11-28T07:44:19.899Z,0.50
2018-11-28T07:46:47.428Z,0.50
2018-11-28T07:49:14.942Z,0.60
2018-11-28T07:51:42.570Z,0.60
2018-11-28T07:54:10.126Z,0.70
2018-11-28T07:56:37.809Z,0.70
2018-11-28T07:59:05.782Z,0.60
2018-11-28T08:01:33.318Z,0.70
2018-11-28T08:04:00.915Z,0.70
2018-11-28T08:06:28.453Z,0.70
2018-11-28T08:08:57.843Z,0.70
2018-11-28T08:11:25.648Z,0.70
2018-11-28T08:13:53.244Z,0.80
2018-11-28T08:16:20.805Z,0.90
2018-11-28T08:18:48.369Z,1.00
2018-11-28T08:21:16.692Z,1.00
2018-11-28T08:23:45.050Z,1.00
2018-11-28T08:26:13.273Z,1.10
2018-11-28T08:28:41.488Z,1.30
2018-11-28T08:31:10.060Z,1.40
2018-11-28T08:33:38.125Z,1.50
2018-11-28T08:36:06.657Z,1.60
2018-11-28T08:38:34.920Z,1.60
2018-11-28T08:41:03.253Z,1.70
2018-11-28T08:43:31.557Z,1.80
2018-11-28T08:45:59.936Z,1.80
2018-11-28T08:48:29.012Z,1.80
2018-11-28T08:50:57.392Z,1.90
2018-11-28T08:53:25.618Z,1.90
2018-11-28T08:55:53.848Z,1.90
2018-11-28T08:58:22.060Z,2.00
2018-11-28T09:00:50.384Z,2.20
2018-11-28T09:03:19.865Z,2.20
2018-11-28T09:05:48.283Z,2.30
2018-11-28T09:08:16.522Z,2.30
2018-11-28T09:10:44.743Z,2.40
2018-11-28T09:13:12.954Z,2.50
2018-11-28T09:15:41.265Z,2.60
2018-11-28T09:18:09.519Z,2.60
2018-11-28T09:20:37.702Z,2.60
2018-11-28T09:23:06.691Z,2.70
2018-11-28T09:25:34.921Z,2.80
2018-11-28T09:28:03.544Z,2.90
2018-11-28T09:30:31.671Z,2.80
2018-11-28T09:32:59.959Z,2.90
2018-11-28T09:35:28.175Z,3.00
2018-11-28T09:37:56.371Z,3.10
2018-11-28T09:40:25.478Z,3.10
2018-11-28T09:42:54.779Z,3.20
2018-11-28T09:45:22.999Z,3.40
2018-11-28T09:47:51.269Z,3.50
2018-11-28T09:50:21.453Z,3.70
2018-11-28T09:52:49.681Z,3.80
2018-11-28T09:55:22.772Z,4.00
2018-11-28T09:57:51.132Z,4.20
2018-11-28T10:00:22.119Z,4.30
2018-11-28T10:02:51.290Z,4.90
2018-11-28T10:05:21.568Z,6.30
2018-11-28T10:07:49.857Z,8.00
2018-11-28T10:10:18.167Z,9.50
2018-11-28T10:12:46.494Z,10.70
2018-11-28T10:15:20.086Z,12.00
2018-11-28T10:17:48.436Z,13.00
2018-11-28T10:20:17.395Z,13.60
2018-11-28T10:22:46.266Z,14.40
2018-11-28T10:25:17.316Z,15.00
2018-11-28T10:27:47.214Z,15.50
2018-11-28T10:30:18.114Z,15.80
2018-11-28T10:32:46.717Z,16.60
2018-11-28T10:35:14.915Z,16.70
2018-11-28T10:37:43.147Z,14.80
2018-11-28T10:40:13.683Z,13.30
2018-11-28T10:42:41.870Z,11.90
2018-11-28T10:45:11.600Z,10.80
2018-11-28T10:47:39.830Z,9.90
2018-11-28T10:50:11.864Z,9.00
2018-11-28T10:52:40.175Z,8.30
2018-11-28T10:55:11.872Z,7.80
2018-11-28T10:57:40.085Z,7.20
2018-11-28T11:00:45.229Z,6.90
2018-11-28T11:03:18.846Z,6.60
2018-11-28T11:07:57.326Z,6.30
2018-11-28T11:10:30.475Z,6.00
2018-11-28T11:13:03.623Z,5.60
2018-11-28T11:15:31.208Z,5.40
2018-11-28T11:18:02.111Z,5.20
2018-11-28T11:20:26.417Z,5.20
2018-11-28T11:22:53.955Z,5.10
2018-11-28T11:25:21.466Z,5.00
2018-11-28T11:27:49.232Z,5.00
2018-11-28T11:30:16.890Z,5.00
2018-11-28T11:32:44.419Z,4.90
2018-11-28T11:35:12.591Z,4.80
2018-11-28T11:37:40.804Z,4.80
2018-11-28T11:40:13.535Z,4.90
2018-11-28T11:42:41.758Z,4.90
2018-11-28T11:45:11.619Z,4.90
2018-11-28T11:47:39.798Z,5.00
2018-11-28T11:50:17.378Z,4.90
2018-11-28T11:52:45.697Z,4.90
2018-11-28T11:55:16.549Z,4.90
2018-11-28T11:57:44.837Z,4.90
2018-11-28T12:00:18.202Z,5.00
2018-11-28T12:02:49.057Z,5.00
2018-11-28T12:05:17.313Z,5.00
2018-11-28T12:07:45.633Z,4.90
2018-11-28T12:10:14.322Z,4.90
2018-11-28T12:12:42.555Z,4.90
2018-11-28T12:15:12.755Z,5.00
2018-11-28T12:17:41.050Z,5.10
2018-11-28T12:20:11.655Z,5.00
2018-11-28T12:22:40.336Z,4.90
2018-11-28T12:25:08.552Z,4.80
2018-11-28T12:27:36.720Z,4.90
2018-11-28T12:30:07.750Z,4.90
2018-11-28T12:32:35.934Z,4.80
2018-11-28T12:35:04.400Z,4.80
2018-11-28T12:37:32.620Z,4.90
2018-11-28T12:40:00.979Z,4.90
2018-11-28T12:42:29.177Z,4.90
2018-11-28T12:44:57.428Z,4.90
2018-11-28T12:47:25.670Z,4.90
2018-11-28T12:49:53.904Z,4.90
2018-11-28T12:52:22.123Z,4.90
2018-11-28T12:54:50.339Z,4.90
2018-11-28T12:57:18.568Z,4.80
2018-11-28T12:59:46.809Z,4.80
2018-11-28T13:02:15.052Z,4.80
2018-11-28T13:04:43.226Z,4.80
2018-11-28T13:07:11.480Z,4.70
2018-11-28T13:09:39.736Z,4.80
2018-11-28T13:12:07.997Z,4.70
2018-11-28T13:14:36.566Z,4.70
2018-11-28T13:17:04.826Z,4.70
2018-11-28T13:19:33.019Z,4.70
2018-11-28T13:22:01.343Z,4.70
2018-11-28T13:24:29.550Z,4.60
2018-11-28T13:26:57.802Z,4.60
2018-11-28T13:29:26.009Z,4.60
2018-11-28T13:31:54.270Z,4.60
2018-11-28T13:34:22.476Z,4.60
2018-11-28T13:36:50.712Z,4.60
2018-11-28T13:39:18.928Z,4.60
2018-11-28T13:41:47.165Z,4.60
2018-11-28T13:44:15.522Z,4.70
2018-11-28T13:46:43.756Z,4.70
2018-11-28T13:49:12.148Z,4.70
2018-11-28T13:51:40.396Z,4.70
2018-11-28T13:54:21.053Z,4.70
2018-11-28T13:59:05.676Z,4.70
2018-11-28T14:01:33.967Z,4.70
2018-11-28T14:04:02.214Z,4.60
2018-11-28T14:06:30.452Z,4.50
2018-11-28T14:08:58.734Z,4.50
2018-11-28T14:11:27.004Z,4.50
2018-11-28T14:13:55.255Z,4.50
2018-11-28T14:16:23.528Z,4.50
2018-11-28T14:18:52.040Z,4.50
2018-11-28T14:21:20.255Z,4.50
2018-11-28T14:23:48.594Z,4.50
2018-11-28T14:26:16.863Z,4.50
2018-11-28T14:28:45.186Z,4.40
2018-11-28T14:31:13.521Z,4.60
2018-11-28T14:33:41.792Z,4.60
2018-11-28T14:36:10.087Z,4.70
2018-11-28T14:38:38.323Z,4.60
2018-11-28T14:41:06.758Z,4.50
2018-11-28T14:43:35.083Z,4.50
2018-11-28T14:46:03.312Z,4.30
2018-11-28T14:48:31.495Z,4.20
2018-11-28T14:50:59.808Z,4.20
2018-11-28T14:53:28.078Z,4.30
2018-11-28T14:55:56.315Z,4.30
2018-11-28T14:58:24.626Z,4.20
2018-11-28T15:00:52.980Z,4.20
2018-11-28T15:03:21.455Z,4.20
2018-11-28T15:06:02.597Z,4.20
2018-11-28T15:08:31.695Z,4.20
2018-11-28T15:11:11.624Z,4.00
2018-11-28T15:13:41.971Z,4.00
2018-11-28T15:16:09.076Z,4.00
2018-11-28T15:18:37.314Z,3.90
2018-11-28T15:21:06.606Z,3.90
2018-11-28T15:23:34.954Z,3.90
2018-11-28T15:26:03.191Z,3.90
2018-11-28T15:28:31.475Z,4.00
2018-11-28T15:31:00.000Z,3.90
2018-11-28T15:33:28.295Z,4.00
2018-11-28T15:35:56.560Z,4.00
2018-11-28T15:38:24.891Z,4.00
2018-11-28T15:40:53.324Z,3.90
2018-11-28T15:43:21.616Z,3.90
2018-11-28T15:45:49.876Z,3.80
2018-11-28T15:48:18.177Z,3.80
2018-11-28T15:50:46.471Z,3.90
2018-11-28T15:53:14.866Z,4.00
2018-11-28T15:55:43.174Z,3.90
2018-11-28T15:58:11.457Z,3.80
2018-11-28T16:00:39.991Z,3.90
2018-11-28T16:03:08.264Z,3.90
2018-11-28T16:05:36.588Z,3.80
2018-11-28T16:08:05.032Z,3.80
2018-11-28T16:10:42.497Z,3.80
2018-11-28T16:13:11.601Z,3.80
2018-11-28T16:15:45.860Z,3.90
2018-11-28T16:18:14.092Z,3.80
2018-11-28T16:20:42.296Z,3.70
2018-11-28T16:23:10.681Z,3.70
2018-11-28T16:25:38.982Z,3.60
2018-11-28T16:28:08.271Z,3.70
2018-11-28T16:30:36.635Z,3.60
2018-11-28T16:33:05.484Z,3.60
2018-11-28T16:35:33.905Z,3.60
2018-11-28T16:38:02.374Z,3.70
2018-11-28T16:40:30.665Z,3.60
2018-11-28T16:44:28.524Z,3.50
2018-11-28T16:46:57.069Z,3.50
2018-11-28T16:49:25.403Z,3.50
2018-11-28T16:51:54.146Z,3.50
2018-11-28T16:54:23.672Z,3.50
2018-11-28T16:56:52.074Z,3.40
2018-11-28T16:59:20.979Z,3.40
2018-11-28T17:01:49.421Z,3.40
2018-11-28T17:04:17.682Z,3.40
2018-11-28T17:06:46.733Z,3.40
2018-11-28T17:09:15.566Z,3.30
2018-11-28T17:11:43.823Z,3.10
2018-11-28T17:14:12.436Z,3.10
2018-11-28T17:16:40.851Z,3.00
2018-11-28T17:19:09.195Z,2.90
2018-11-28T17:21:39.281Z,2.80
2018-11-28T17:24:07.755Z,2.70
2018-11-28T17:26:36.185Z,2.60
2018-11-28T17:29:04.490Z,2.70
2018-11-28T17:31:32.756Z,2.60
2018-11-28T17:34:01.051Z,2.60
2018-11-28T17:36:29.546Z,2.50
2018-11-28T17:38:58.128Z,2.40
2018-11-28T17:41:26.376Z,2.50
2018-11-28T17:43:54.728Z,2.60
2018-11-28T17:46:23.027Z,2.60
2018-11-28T17:50:20.806Z,2.60
2018-11-28T17:52:57.817Z,2.70
2018-11-28T17:55:27.187Z,2.70
2018-11-28T17:57:55.752Z,2.60
2018-11-28T18:00:24.140Z,2.60
2018-11-28T18:02:52.372Z,2.60
2018-11-28T18:05:20.662Z,2.50
2018-11-28T18:07:49.048Z,2.60
2018-11-28T18:10:18.585Z,2.70
2018-11-28T18:12:58.419Z,2.60
2018-11-28T18:15:26.749Z,2.80
2018-11-28T18:17:57.624Z,2.80
2018-11-28T18:20:25.930Z,2.70
2018-11-28T18:22:54.226Z,2.80
2018-11-28T18:25:23.135Z,2.80
2018-11-28T18:27:51.368Z,2.80
2018-11-28T18:30:19.664Z,2.80
2018-11-28T18:32:47.974Z,2.80
2018-11-28T18:35:16.502Z,2.80
2018-11-28T18:37:44.764Z,2.70
2018-11-28T18:40:13.733Z,2.70
2018-11-28T18:42:42.622Z,2.70
2018-11-28T18:45:15.009Z,2.70
2018-11-28T18:47:43.353Z,2.70
2018-11-28T18:50:12.387Z,2.70
2018-11-28T18:52:41.061Z,2.70
2018-11-28T18:55:16.504Z,2.70
2018-11-28T18:57:41.248Z,2.70
2018-11-28T19:00:18.351Z,2.70
2018-11-28T19:02:47.138Z,2.60
2018-11-28T19:05:16.375Z,2.60
2018-11-28T19:07:45.582Z,2.60
2018-11-28T19:10:16.413Z,2.80
2018-11-28T19:12:44.680Z,2.80
2018-11-28T19:32:29.558Z,2.60
2018-11-28T19:34:58.022Z,2.60
2018-11-28T19:37:26.555Z,2.60
2018-11-28T19:39:55.622Z,2.60
2018-11-28T19:42:26.209Z,2.60
2018-11-28T19:44:54.913Z,2.60
2018-11-28T19:47:23.368Z,2.60
2018-11-28T19:49:51.635Z,2.70
2018-11-28T19:52:20.030Z,2.70
2018-11-28T19:54:48.383Z,2.60
2018-11-28T19:57:16.766Z,2.50
2018-11-28T19:59:45.286Z,2.60
2018-11-28T20:02:13.680Z,2.60
2018-11-28T20:04:44.051Z,2.60
2018-11-28T20:07:12.509Z,2.60
2018-11-28T20:09:41.189Z,2.60
2018-11-28T20:12:09.671Z,2.60
2018-11-28T20:14:38.129Z,2.60
2018-11-28T20:17:10.038Z,2.60
2018-11-28T20:19:38.376Z,2.60
2018-11-28T20:22:08.782Z,2.70
2018-11-28T20:26:06.626Z,2.60
2018-11-28T20:28:35.026Z,2.60
2018-11-28T20:31:04.003Z,2.50
2018-11-28T20:33:32.375Z,2.40
2018-11-28T20:36:00.739Z,2.40
2018-11-28T20:38:31.987Z,2.40
2018-11-28T20:41:00.323Z,2.40
2018-11-28T20:43:28.565Z,2.40
2018-11-28T20:45:57.105Z,2.40
2018-11-28T20:48:26.076Z,2.40
2018-11-28T20:50:54.445Z,2.40
2018-11-28T20:53:22.874Z,2.50
2018-11-28T20:55:51.772Z,2.50
2018-11-28T20:58:20.243Z,2.40
2018-11-28T21:00:48.608Z,2.20
2018-11-28T21:03:16.980Z,2.20
2018-11-28T21:05:45.430Z,2.30
2018-11-28T21:08:14.292Z,2.40
2018-11-28T21:10:43.044Z,2.50
2018-11-28T21:13:14.276Z,2.50
2018-11-28T21:15:45.061Z,2.50
2018-11-28T21:18:14.079Z,2.60
2018-11-28T21:20:44.044Z,2.50
2018-11-28T21:23:14.808Z,2.50
2018-11-28T21:25:43.409Z,2.40
2018-11-28T21:28:11.803Z,2.30
2018-11-28T21:30:40.151Z,2.30
2018-11-28T21:33:09.292Z,2.30
2018-11-28T21:35:39.062Z,2.40
2018-11-28T21:38:08.040Z,2.30
2018-11-28T21:40:36.348Z,2.30
2018-11-28T21:43:04.964Z,2.40
2018-11-28T21:45:34.041Z,2.40
2018-11-28T21:48:02.462Z,2.30
2018-11-28T21:50:30.780Z,2.30
2018-11-28T21:52:59.099Z,2.20
2018-11-28T21:55:27.529Z,2.20
2018-11-28T21:57:55.866Z,2.20
2018-11-28T22:00:25.270Z,2.20
2018-11-28T22:02:53.586Z,2.20
2018-11-28T22:05:22.208Z,2.20
2018-11-28T22:07:50.619Z,2.20
2018-11-28T22:10:20.783Z,2.20
2018-11-28T22:12:49.173Z,2.20
2018-11-28T22:22:03.535Z,2.10
2018-11-28T22:24:31.792Z,2.10
2018-11-28T22:27:00.247Z,2.00
2018-11-28T22:29:28.454Z,2.00
2018-11-28T22:31:56.693Z,2.00
2018-11-28T22:34:25.040Z,1.90
2018-11-28T22:36:53.317Z,2.00
2018-11-28T22:39:21.626Z,2.00
2018-11-28T22:41:49.898Z,2.10
2018-11-28T22:44:18.146Z,2.10
2018-11-28T22:46:46.398Z,2.20
2018-11-28T22:49:14.732Z,2.10
2018-11-28T22:51:43.025Z,1.90
2018-11-28T22:54:11.367Z,1.90
2018-11-28T22:56:39.711Z,2.00
2018-11-28T22:59:07.986Z,2.10
2018-11-28T23:01:51.973Z,2.00
2018-11-28T23:04:20.224Z,2.00
2018-11-28T23:06:48.498Z,2.00
2018-11-28T23:09:16.842Z,2.00
2018-11-28T23:11:45.234Z,2.00
2018-11-28T23:14:13.506Z,2.00
2018-11-28T23:16:41.825Z,2.00
2018-11-28T23:19:10.319Z,2.00
2018-11-28T23:21:38.576Z,2.10
2018-11-28T23:24:06.941Z,2.00
2018-11-28T23:26:35.201Z,2.00
2018-11-28T23:29:03.440Z,2.00
2018-11-28T23:31:31.761Z,2.00
2018-11-28T23:33:59.965Z,1.80
2018-11-28T23:36:29.186Z,1.80
2018-11-28T23:38:57.530Z,1.80
2018-11-28T23:41:26.455Z,1.70
2018-11-28T23:43:54.754Z,1.80
2018-11-28T23:46:23.149Z,1.80
2018-11-28T23:48:51.446Z,1.80
2018-11-28T23:51:19.775Z,1.80
2018-11-28T23:53:48.042Z,1.80
2018-11-28T23:56:16.279Z,1.80
2018-11-28T23:58:44.538Z,1.80
